Des Moines, IA (50311)

9:52 PM CDT on May 23, 2017 (GMT -0500)
Waveland | | Change Station
Active Advisory: Flood Warning

Elev 977 ft 41.60 °N, 93.68 °W | Updated 27 seconds ago

Partly Cloudy
Partly Cloudy
53.4 °F
Feels Like 53.4 °F
N
0.0
Wind Variable Wind from NNE
Gusts 0.0 mph

Today
High -- | Low -- °F
--% Chance of Precip.
Yesterday
High -- | Low -- °F
Precip. -- in
Pressure 29.75 in
Visibility 10.0 miles
Clouds Scattered Clouds 3000 ft
Scattered Clouds 6500 ft
Mostly Cloudy 15000 ft
Dew Point 35 °F
Humidity 50%
Rainfall 0.63 in
Snow Depth Not available.
5:48 AM 8:35 PM
Waning Crescent, 4% visible
METAR KDSM 240154Z 31008KT 10SM SCT030 SCT065 BKN150 13/07 A2975 RMK AO2 SLP074 T01280072
Pressure 29.75 in
Visibility 10.0 miles
Clouds Scattered Clouds 3000 ft
Scattered Clouds 6500 ft
Mostly Cloudy 15000 ft
Dew Point 35 °F
Humidity 50%
Rainfall 0.63 in
Snow Depth Not available.
5:48 AM 8:35 PM
Waning Crescent, 4% visible
METAR KDSM 240154Z 31008KT 10SM SCT030 SCT065 BKN150 13/07 A2975 RMK AO2 SLP074 T01280072

Get Your Daily Forecast Email!

Thanks for signing up!

Be on the lookout for a verification email in your inbox.

You'll start receiving severe weather alerts in your inbox..

×

10-Day Weather Forecast

Almanac

Astronomy

May. 23, 2017 Rise Set
Actual Time
Civil Twilight
Nautical Twilight
Astronomical Twilight
Moon
Length of Visible Light
Length of Day
Tomorrow will be .
, % of the Moon is Illuminated

Today's Extremes

State Highs State Lows

Community

WunderPhotos

Category 6

Welcome to Category 6. This is the collective home for Weather Underground's featured writeups by Dr. Jeff Masters (right), Bob Henson (left), Chris Burt, and other regular contributors.

Nearby

Air Quality

  Air Quality AQ Index Pollutant
Not available.

Snow Depth

Station Depth Elevation

Earthquake Activity

City Distance Mag. Time & Date
Minimum magnitude displayed is 2.5.

Coastal Water Temperatures

Place Temperature

Stations

Nearby Weather Stations

Station Location Temp. Windchill Dew Point Humidity Wind Precip. Elev Updated Type
                   

Watches & Warnings

Flood Warning
Issued: 9:32 PM CDT May. 23, 2017 – National Weather Service

... Flood Warning remains in effect until Thursday morning...

The Flood Warning continues for
the Des Moines River at Des Moines se 6th St... or from below the
center street dam... to Runnells.
* Until Thursday morning.
* At 9:00 PM Tuesday the stage was 24.0 feet... or at flood stage.
* Flood stage is 24.0 feet.
* Minor flooding is occurring and is forecast to continue.
* Forecast... rise to 24.1 feet... or 0.1 feet above flood stage...
Wednesday evening. Then begin falling and go below flood stage
Thursday morning.
* Impact... at 24.0 feet... the bike trail is closed east of Water
Street. Portions of other bike trails are also affected.


Lat... Lon 4159 9356 4152 9333 4145 9333 4154 9356
      4159 9366 4159 9356